Time;durP1;ratioP1;P1;durP2;ratioP2;P2;SDS_P1;SDS_P2;PMS_P1;PMS_P2;Temp;Humidity;BMP_temperature;BMP_pressure;BME280_temperature;BME280_humidity;BME280_pressure;Samples;Min_cycle;Max_cycle;Signal;HPM_P1;HPM_P2
2023/08/28 00:00:59;;;;;;;5.97;3.65;;;;;;;21.36;64.30;98911.59;4862727;29;20028;-89
2023/08/28 00:03:24;;;;;;;6.82;3.75;;;;;;;21.33;64.86;98915.03;4863542;29;20016;-88
2023/08/28 00:05:50;;;;;;;7.63;3.70;;;;;;;21.31;63.95;98909.13;4871630;29;20515;-88
2023/08/28 00:08:16;;;;;;;6.22;3.58;;;;;;;21.31;63.87;98908.28;4883366;29;20071;-89
2023/08/28 00:10:41;;;;;;;4.78;3.45;;;;;;;21.30;64.21;98914.94;4867006;29;20025;-88
2023/08/28 00:13:07;;;;;;;4.70;3.53;;;;;;;21.25;64.83;98913.25;4886841;29;20031;-88
2023/08/28 00:15:33;;;;;;;5.82;3.47;;;;;;;21.19;64.60;98903.72;4868890;29;20487;-89
2023/08/28 00:17:58;;;;;;;5.00;3.40;;;;;;;21.13;65.33;98905.09;4862979;29;20016;-88
2023/08/28 00:20:24;;;;;;;4.32;3.33;;;;;;;21.01;65.32;98889.53;4863611;29;20040;-89
2023/08/28 00:22:49;;;;;;;6.38;3.60;;;;;;;21.01;65.27;98895.00;4864879;29;20048;-88
2023/08/28 00:25:15;;;;;;;6.38;3.72;;;;;;;21.00;65.99;98904.38;4885548;29;20035;-88
2023/08/28 00:27:40;;;;;;;6.72;3.63;;;;;;;20.93;65.77;98902.22;4861675;29;20120;-88
2023/08/28 00:30:07;;;;;;;9.63;3.88;;;;;;;20.79;66.95;98897.16;4870940;29;20060;-89
2023/08/28 00:32:34;;;;;;;4.70;3.30;;;;;;;20.84;66.54;98898.06;4872163;29;20555;-89
2023/08/28 00:34:59;;;;;;;7.40;3.42;;;;;;;21.06;64.92;98893.94;4865645;29;20032;-88
2023/08/28 00:37:25;;;;;;;6.13;3.25;;;;;;;21.04;65.35;98894.28;4870600;29;20028;-89
2023/08/28 00:39:50;;;;;;;5.50;3.65;;;;;;;21.11;65.04;98899.97;4861870;29;20028;-88
2023/08/28 00:42:19;;;;;;;6.13;3.75;;;;;;;21.06;65.44;98896.69;4860854;29;20786;-88
2023/08/28 00:44:44;;;;;;;5.20;3.53;;;;;;;21.19;64.67;98895.50;4865864;29;20475;-88
2023/08/28 00:47:10;;;;;;;8.15;3.50;;;;;;;21.20;65.02;98903.34;4864047;29;20024;-88
2023/08/28 00:49:36;;;;;;;5.68;3.40;;;;;;;21.29;64.24;98902.38;4857512;29;20036;-88
2023/08/28 00:52:01;;;;;;;5.00;3.30;;;;;;;21.47;63.85;98914.63;4860651;29;20024;-88
2023/08/28 00:54:27;;;;;;;6.28;3.38;;;;;;;21.15;65.05;98895.41;4862565;29;20063;-88
2023/08/28 00:56:55;;;;;;;6.50;3.50;;;;;;;21.09;65.11;98883.09;4861264;29;20092;-88
2023/08/28 00:59:21;;;;;;;4.70;3.90;;;;;;;21.26;64.71;98889.41;4860039;29;20024;-88
2023/08/28 01:01:46;;;;;;;5.07;3.58;;;;;;;21.22;64.96;98889.31;4860794;29;20032;-88
2023/08/28 01:04:12;;;;;;;7.43;3.70;;;;;;;21.26;64.63;98892.13;4873772;29;20031;-88
2023/08/28 01:06:52;;;;;;;6.20;3.35;;;;;;;21.28;65.23;98906.28;4865514;29;20024;-88
2023/08/28 01:09:41;;;;;;;5.45;3.60;;;;;;;20.97;65.96;98894.91;4899878;29;20036;-88
2023/08/28 01:12:30;;;;;;;4.47;3.50;;;;;;;20.82;66.78;98890.19;4886151;29;20493;-88
2023/08/28 01:15:21;;;;;;;5.22;3.35;;;;;;;20.66;66.89;98886.59;4863837;29;20037;-88
2023/08/28 01:17:49;;;;;;;6.05;3.40;;;;;;;20.55;67.85;98883.53;4861776;29;20543;-88
2023/08/28 01:20:15;;;;;;;9.88;4.30;;;;;;;20.44;68.75;98888.72;4863329;29;20039;-88
2023/08/28 01:23:14;;;;;;;6.50;3.97;;;;;;;20.33;69.05;98899.31;4869863;29;20044;-88
2023/08/28 01:25:39;;;;;;;5.65;3.63;;;;;;;20.26;69.49;98895.59;4898318;29;20513;-88
2023/08/28 01:28:07;;;;;;;5.82;4.25;;;;;;;20.14;69.16;98882.72;4863161;29;20024;-88
2023/08/28 01:30:33;;;;;;;7.43;3.60;;;;;;;20.25;69.01;98900.22;4864615;29;20024;-87
2023/08/28 01:32:58;;;;;;;6.25;3.80;;;;;;;20.25;68.71;98883.84;4865551;29;20088;-88
2023/08/28 01:35:28;;;;;;;6.00;3.80;;;;;;;20.27;68.76;98880.75;4862784;29;20028;-89
2023/08/28 01:38:03;;;;;;;7.35;4.07;;;;;;;20.19;69.68;98885.22;4876853;29;20031;-89
2023/08/28 01:40:54;;;;;;;7.20;3.72;;;;;;;20.09;69.91;98880.25;4882197;29;20059;-88
2023/08/28 01:43:21;;;;;;;6.13;4.00;;;;;;;20.07;70.32;98883.31;4872628;29;20055;-89
2023/08/28 01:45:47;;;;;;;7.00;3.47;;;;;;;19.97;70.43;98884.56;4863242;29;20032;-89
2023/08/28 01:48:12;;;;;;;7.00;3.95;;;;;;;19.97;70.29;98883.78;4867559;29;20036;-88
2023/08/28 01:50:38;;;;;;;6.18;4.18;;;;;;;19.95;70.82;98886.84;4858313;29;20060;-89
2023/08/28 01:53:03;;;;;;;7.15;4.00;;;;;;;19.77;70.95;98866.34;4866052;29;20033;-88
2023/08/28 01:55:51;;;;;;;7.13;4.05;;;;;;;19.87;70.84;98878.78;4858294;29;20033;-88
2023/08/28 01:58:17;;;;;;;6.88;3.70;;;;;;;19.74;70.82;98865.13;4896068;29;20031;-89
2023/08/28 02:00:42;;;;;;;8.30;3.63;;;;;;;19.81;71.45;98877.41;4876249;29;20148;-88
2023/08/28 02:03:09;;;;;;;11.75;5.40;;;;;;;19.71;71.58;98860.31;4864330;29;20048;-88
2023/08/28 02:05:34;;;;;;;7.75;4.22;;;;;;;19.68;71.05;98860.19;4876827;29;20171;-89
2023/08/28 02:08:00;;;;;;;5.57;3.83;;;;;;;19.67;71.35;98856.69;4868363;29;20032;-88
2023/08/28 02:10:25;;;;;;;4.75;3.60;;;;;;;19.67;71.85;98864.06;4866845;29;20423;-88
2023/08/28 02:12:51;;;;;;;7.13;3.78;;;;;;;19.57;72.02;98849.72;4863900;29;20017;-88
2023/08/28 02:15:17;;;;;;;8.48;4.68;;;;;;;19.51;72.34;98848.34;4864897;29;20036;-89
2023/08/28 02:17:42;;;;;;;8.27;4.80;;;;;;;19.55;72.30;98851.22;4866253;29;20119;-88
2023/08/28 02:20:11;;;;;;;7.88;4.38;;;;;;;19.49;72.37;98852.56;4869470;29;20408;-89
2023/08/28 02:22:36;;;;;;;7.85;4.20;;;;;;;19.59;72.06;98847.44;4859455;29;20128;-90
2023/08/28 02:25:05;;;;;;;5.45;3.72;;;;;;;19.81;71.12;98848.16;4872251;29;20029;-91
2023/08/28 02:27:31;;;;;;;4.90;3.97;;;;;;;20.01;70.50;98872.97;4857369;29;20036;-89
2023/08/28 02:29:56;;;;;;;5.32;3.75;;;;;;;20.00;69.95;98861.22;4872389;29;20172;-89
2023/08/28 02:32:23;;;;;;;5.22;4.00;;;;;;;19.83;70.87;98861.47;4871094;29;20044;-91
2023/08/28 02:34:49;;;;;;;6.57;3.72;;;;;;;19.81;71.10;98858.28;4871972;29;20029;-90
2023/08/28 02:37:14;;;;;;;6.20;4.20;;;;;;;19.75;71.05;98852.25;4871868;29;20123;-90
2023/08/28 02:39:40;;;;;;;7.28;4.25;;;;;;;19.76;71.09;98862.03;4871852;29;20120;-90
2023/08/28 02:42:05;;;;;;;6.47;3.60;;;;;;;19.58;71.14;98845.84;4863559;29;20033;-88
2023/08/28 02:44:31;;;;;;;7.00;4.07;;;;;;;19.66;71.43;98865.19;4865960;29;20027;-90
2023/08/28 02:46:56;;;;;;;7.00;4.22;;;;;;;19.59;71.19;98855.66;4870062;29;20060;-90
2023/08/28 02:49:22;;;;;;;6.57;3.75;;;;;;;19.63;70.88;98858.50;4871104;29;20028;-89
2023/08/28 02:51:48;;;;;;;6.85;3.95;;;;;;;19.63;70.74;98861.22;4869504;29;20031;-89
2023/08/28 02:54:13;;;;;;;6.40;3.97;;;;;;;19.87;69.42;98852.25;4871354;29;20177;-90
2023/08/28 02:56:39;;;;;;;5.53;3.45;;;;;;;19.89;68.86;98838.25;4864861;29;20072;-91
2023/08/28 02:59:05;;;;;;;4.72;3.22;;;;;;;19.96;68.78;98852.09;4866803;29;20028;-90
2023/08/28 03:01:34;;;;;;;10.70;3.67;;;;;;;19.92;69.64;98857.50;4865190;29;20032;-90
2023/08/28 03:04:04;;;;;;;6.90;3.72;;;;;;;19.78;70.14;98870.69;4870772;29;20030;-90
2023/08/28 03:06:39;;;;;;;5.82;3.80;;;;;;;19.76;69.76;98856.59;4878452;29;20115;-90
2023/08/28 03:09:06;;;;;;;5.50;3.97;;;;;;;19.87;69.17;98859.66;4872887;29;20111;-90
2023/08/28 03:11:31;;;;;;;6.72;3.60;;;;;;;19.85;69.29;98864.66;4864935;29;20040;-88
2023/08/28 03:13:56;;;;;;;7.43;3.90;;;;;;;19.86;69.21;98871.69;4863555;29;20040;-90
2023/08/28 03:16:22;;;;;;;9.98;4.13;;;;;;;19.64;69.87;98867.47;4874216;29;20050;-90
2023/08/28 03:18:48;;;;;;;7.60;3.95;;;;;;;19.52;70.56;98865.53;4874481;29;20024;-91
2023/08/28 03:21:14;;;;;;;5.80;3.78;;;;;;;19.44;70.32;98863.72;4890631;29;20029;-91
2023/08/28 03:23:40;;;;;;;8.98;4.03;;;;;;;19.36;70.94;98849.84;4874058;29;20510;-90
2023/08/28 03:26:05;;;;;;;5.63;4.20;;;;;;;19.36;71.10;98862.66;4873766;29;20059;-91
2023/08/28 03:28:31;;;;;;;13.15;4.60;;;;;;;19.32;71.47;98865.28;4873824;29;20031;-92
2023/08/28 03:30:57;;;;;;;9.68;3.78;;;;;;;19.25;71.70;98869.72;4874268;29;20099;-91
2023/08/28 03:33:25;;;;;;;5.70;4.00;;;;;;;19.17;72.14;98877.66;4874781;29;20031;-90
2023/08/28 03:35:54;;;;;;;7.60;3.95;;;;;;;19.11;72.60;98883.66;4874623;29;20032;-90
2023/08/28 03:38:19;;;;;;;6.60;3.90;;;;;;;19.00;73.07;98877.03;4875488;29;20414;-92
2023/08/28 03:40:45;;;;;;;8.02;4.40;;;;;;;18.91;73.55;98886.13;4874332;29;20020;-90
2023/08/28 03:43:11;;;;;;;9.15;4.40;;;;;;;18.91;73.58;98888.06;4874420;29;20043;-90
2023/08/28 03:45:37;;;;;;;13.55;5.15;;;;;;;18.86;73.93;98888.25;4872695;29;20067;-90
2023/08/28 03:48:03;;;;;;;7.28;4.53;;;;;;;18.83;74.39;98902.56;4871577;29;20503;-89
2023/08/28 03:50:30;;;;;;;8.68;4.15;;;;;;;18.78;74.37;98900.81;4873440;29;20056;-91
2023/08/28 03:52:58;;;;;;;6.95;5.10;;;;;;;18.78;74.74;98898.91;4873912;29;20032;-89
2023/08/28 03:55:24;;;;;;;12.70;7.43;;;;;;;18.75;74.56;98896.03;4874040;29;20040;-90
2023/08/28 03:57:50;;;;;;;20.10;7.40;;;;;;;18.78;74.65;98893.47;4874807;29;20067;-90
2023/08/28 04:00:16;;;;;;;11.13;5.05;;;;;;;18.70;74.76;98893.50;4874927;29;20039;-91
2023/08/28 04:02:44;;;;;;;13.57;5.18;;;;;;;18.84;74.33;98901.41;4873670;29;20020;-91
2023/08/28 04:05:11;;;;;;;7.57;4.63;;;;;;;18.76;74.92;98894.91;4875457;29;20028;-90
2023/08/28 04:07:36;;;;;;;6.80;4.82;;;;;;;18.54;75.30;98876.94;4874086;29;20028;-91
2023/08/28 04:10:05;;;;;;;10.20;5.30;;;;;;;18.58;75.26;98892.31;4873811;29;20518;-91
2023/08/28 04:12:31;;;;;;;10.73;5.18;;;;;;;18.50;75.81;98882.25;4873404;29;20032;-91
2023/08/28 04:14:57;;;;;;;12.73;5.63;;;;;;;18.50;75.64;98871.34;4873212;29;20083;-92
2023/08/28 04:17:32;;;;;;;9.93;5.38;;;;;;;18.38;75.86;98855.72;4879072;29;20028;-91
2023/08/28 04:19:58;;;;;;;10.23;5.88;;;;;;;18.57;75.75;98873.53;4875239;29;20028;-91
2023/08/28 04:22:23;;;;;;;10.88;5.38;;;;;;;18.44;75.34;98847.38;4874025;29;20031;-91
2023/08/28 04:24:49;;;;;;;10.25;5.10;;;;;;;18.44;75.82;98850.88;4873466;29;20240;-92
2023/08/28 04:27:26;;;;;;;12.00;6.53;;;;;;;18.72;75.63;98881.13;4875182;29;20027;-88
2023/08/28 04:29:51;;;;;;;9.15;5.45;;;;;;;18.73;75.25;98876.47;4874978;29;20036;-88
2023/08/28 04:32:29;;;;;;;11.48;5.63;;;;;;;18.70;74.73;98864.31;4871718;29;20043;-88
2023/08/28 04:35:11;;;;;;;;;;;;;;;;;;;;;
2023/08/28 04:37:37;;;;;;;9.82;4.97;;;;;;;18.92;74.40;98882.25;4891108;29;20055;-87
2023/08/28 04:40:03;;;;;;;9.30;5.13;;;;;;;18.90;74.46;98876.31;4868936;29;20033;-90
2023/08/28 04:42:28;;;;;;;7.30;4.95;;;;;;;18.97;74.49;98873.84;4867006;29;20028;-87
2023/08/28 04:44:54;;;;;;;8.95;5.47;;;;;;;18.98;74.35;98871.91;4883463;29;20035;-87
2023/08/28 04:47:22;;;;;;;9.68;5.18;;;;;;;19.01;74.37;98878.63;4866769;29;20040;-88
2023/08/28 04:49:50;;;;;;;8.38;4.63;;;;;;;19.05;73.87;98877.63;4866660;29;20028;-89
2023/08/28 04:52:16;;;;;;;8.05;4.68;;;;;;;19.15;73.69;98892.75;4870181;29;20040;-89
2023/08/28 04:54:42;;;;;;;14.13;5.05;;;;;;;19.09;73.67;98877.75;4854946;29;20020;-89
2023/08/28 04:57:07;;;;;;;15.18;6.90;;;;;;;19.15;73.42;98884.59;4855020;29;20503;-91
2023/08/28 04:59:33;;;;;;;9.88;4.50;;;;;;;19.28;72.81;98888.94;4853329;29;20025;-90
2023/08/28 05:01:58;;;;;;;12.48;4.75;;;;;;;19.32;72.93;98889.88;4855077;29;20119;-89
2023/08/28 05:04:24;;;;;;;12.23;5.40;;;;;;;19.30;72.12;98872.22;4854192;29;20488;-90
2023/08/28 05:06:50;;;;;;;16.20;6.68;;;;;;;19.60;71.61;98886.47;4855101;29;20037;-88
2023/08/28 05:09:33;;;;;;;;;;;;;;;;;;;;;
2023/08/28 05:11:59;;;;;;;11.90;5.78;;;;;;;19.81;70.31;98882.88;4873560;29;20115;-90
2023/08/28 05:14:31;;;;;;;7.13;4.38;;;;;;;19.92;69.55;98871.16;4857882;29;20036;-96
2023/08/28 05:16:56;;;;;;;15.57;4.95;;;;;;;20.13;68.58;98868.28;4877420;29;20028;-90
2023/08/28 05:19:22;;;;;;;36.92;7.55;;;;;;;20.24;68.20;98876.00;4873412;29;20032;-90
2023/08/28 05:21:47;;;;;;;42.80;9.00;;;;;;;20.30;68.54;98869.16;4869324;29;20063;-90
2023/08/28 05:24:16;;;;;;;22.95;5.60;;;;;;;20.43;67.74;98867.16;4871692;29;20052;-91
2023/08/28 05:27:11;;;;;;;9.35;4.43;;;;;;;20.35;67.04;98860.69;4880986;29;20032;-89
2023/08/28 05:29:40;;;;;;;5.88;4.25;;;;;;;20.50;66.30;98861.91;4885601;29;20136;-91
2023/08/28 05:32:06;;;;;;;11.07;4.28;;;;;;;20.74;66.73;98872.00;4889057;29;20040;-90
2023/08/28 05:34:32;;;;;;;11.68;5.82;;;;;;;20.94;65.58;98875.66;4873568;29;20055;-91
2023/08/28 05:36:57;;;;;;;16.27;4.90;;;;;;;21.03;64.21;98875.50;4869308;29;20035;-92
2023/08/28 05:39:31;;;;;;;11.50;4.47;;;;;;;21.12;63.72;98871.44;4872441;29;20432;-91
2023/08/28 05:41:59;;;;;;;8.85;4.90;;;;;;;21.29;62.52;98884.03;4875909;29;20114;-96
2023/08/28 05:44:27;;;;;;;9.50;4.07;;;;;;;21.22;62.24;98850.19;4880281;29;20047;-96
2023/08/28 05:46:55;;;;;;;8.73;4.15;;;;;;;21.33;61.69;98860.25;4884187;29;20032;-94
2023/08/28 05:49:22;;;;;;;7.32;3.63;;;;;;;21.41;61.43;98877.66;4880035;29;20036;-96
2023/08/28 05:51:48;;;;;;;9.18;3.80;;;;;;;21.68;61.00;98870.50;4881942;29;20032;-96
2023/08/28 05:54:15;;;;;;;9.00;3.72;;;;;;;21.86;59.87;98864.66;4877676;29;20032;-93
2023/08/28 05:56:46;;;;;;;12.52;4.03;;;;;;;22.03;60.42;98877.97;4880477;29;20056;-96
2023/08/28 05:59:23;;;;;;;13.00;4.20;;;;;;;21.80;61.28;98853.97;4882048;29;20036;-96
2023/08/28 06:01:49;;;;;;;9.23;3.75;;;;;;;21.76;61.14;98866.00;4885093;29;20055;-95
2023/08/28 06:04:17;;;;;;;6.63;3.17;;;;;;;21.63;60.70;98832.44;4899372;29;20037;-96
2023/08/28 06:06:43;;;;;;;6.30;3.72;;;;;;;22.08;58.56;98865.94;4889812;29;20053;-95
2023/08/28 06:09:10;;;;;;;7.95;5.93;;;;;;;22.02;57.46;98842.69;4886947;29;20032;-95
2023/08/28 06:11:46;;;;;;;7.50;5.03;;;;;;;22.49;56.97;98874.69;4883075;29;20040;-96
2023/08/28 06:14:25;;;;;;;6.88;3.38;;;;;;;22.47;56.67;98871.50;4884107;29;20066;-96
2023/08/28 06:16:51;;;;;;;7.40;3.25;;;;;;;22.47;56.55;98857.78;4885934;29;20032;-96
2023/08/28 06:19:22;;;;;;;11.02;3.78;;;;;;;22.66;55.80;98857.00;4885691;29;20039;-94
2023/08/28 06:21:48;;;;;;;7.28;3.70;;;;;;;22.86;55.52;98877.00;4877875;29;20040;-90
2023/08/28 06:27:45;;;;;;;15.45;9.50;;;;;;;22.88;55.62;98874.69;4926784;29;20076;-91
2023/08/28 06:30:13;;;;;;;9.35;3.35;;;;;;;22.94;55.03;98854.00;4891627;29;20032;-92
2023/08/28 06:32:39;;;;;;;9.02;3.70;;;;;;;23.17;53.92;98876.03;4873174;29;20044;-90
2023/08/28 06:35:05;;;;;;;9.00;3.70;;;;;;;23.38;54.03;98875.59;4866997;29;20039;-91
2023/08/28 06:41:06;;;;;;;5.22;2.97;;;;;;;23.73;52.25;98864.41;4887044;29;20044;-96
2023/08/28 06:43:31;;;;;;;6.93;4.82;;;;;;;23.99;52.03;98882.91;4862000;29;20033;-89
2023/08/28 06:45:58;;;;;;;5.13;2.90;;;;;;;23.86;49.51;98872.47;4854468;29;20479;-90
2023/08/28 06:48:27;;;;;;;13.30;6.80;;;;;;;24.04;50.10;98862.53;4874785;29;20039;-89
2023/08/28 06:50:52;;;;;;;11.93;7.80;;;;;;;24.19;51.00;98858.78;4861746;29;20036;-90
2023/08/28 06:53:18;;;;;;;8.05;3.42;;;;;;;24.27;48.71;98867.16;4881506;29;20076;-90
2023/08/28 06:55:47;;;;;;;5.65;3.30;;;;;;;24.36;48.68;98853.91;4860855;29;20039;-91
2023/08/28 06:58:15;;;;;;;7.93;3.40;;;;;;;24.38;49.68;98843.31;4858644;29;20028;-91
2023/08/28 07:00:44;;;;;;;7.75;3.38;;;;;;;24.46;50.60;98842.25;4865617;29;20040;-92
2023/08/28 07:03:19;;;;;;;17.05;4.38;;;;;;;24.68;50.76;98840.56;4904355;29;20099;-90
2023/08/28 07:05:48;;;;;;;10.27;4.70;;;;;;;24.92;50.54;98844.78;4865329;29;20041;-90
2023/08/28 07:08:16;;;;;;;7.85;3.40;;;;;;;25.13;50.13;98841.44;4866262;29;20063;-90
2023/08/28 07:10:45;;;;;;;8.43;4.20;;;;;;;25.18;48.69;98832.81;4870384;29;20024;-90
2023/08/28 07:13:10;;;;;;;8.05;3.05;;;;;;;25.38;47.91;98854.66;4863392;29;20048;-89
2023/08/28 07:15:59;;;;;;;6.82;3.22;;;;;;;25.48;44.34;98844.91;4864970;29;20044;-91
2023/08/28 07:18:48;;;;;;;3.58;2.38;;;;;;;25.70;43.78;98843.09;4884982;29;20460;-93
2023/08/28 07:21:13;;;;;;;6.45;3.10;;;;;;;25.80;43.96;98823.88;4888670;29;20028;-88
2023/08/28 07:23:39;;;;;;;7.30;4.50;;;;;;;26.01;43.03;98831.50;4881184;29;20036;-89
2023/08/28 07:26:16;;;;;;;;;;;;;;;;;;;;;
2023/08/28 07:29:12;;;;;;;5.07;2.30;;;;;;;26.11;41.22;98810.66;4867710;29;20100;-88
2023/08/28 07:32:02;;;;;;;5.70;2.72;;;;;;;26.31;41.55;98816.66;4868406;29;20526;-89
2023/08/28 07:34:27;;;;;;;4.07;2.55;;;;;;;26.51;40.95;98816.34;4874944;29;20115;-86
2023/08/28 07:36:53;;;;;;;6.05;3.50;;;;;;;26.86;39.94;98848.84;4861487;29;20043;-88
2023/08/28 07:39:18;;;;;;;4.03;2.90;;;;;;;26.92;39.36;98827.94;4866592;29;20016;-90
2023/08/28 07:41:44;;;;;;;5.82;2.67;;;;;;;27.08;39.33;98833.09;4867123;29;20135;-90
2023/08/28 07:44:10;;;;;;;6.15;2.40;;;;;;;27.20;38.35;98848.50;4876422;29;20035;-89
2023/08/28 07:46:38;;;;;;;5.30;2.65;;;;;;;27.28;38.63;98833.53;4882505;29;20040;-90
2023/08/28 07:49:04;;;;;;;5.25;2.45;;;;;;;27.53;38.93;98839.03;4878370;29;20028;-88
2023/08/28 07:51:29;;;;;;;8.63;2.60;;;;;;;27.55;39.07;98828.38;4878499;29;20035;-89
2023/08/28 07:53:58;;;;;;;5.13;2.10;;;;;;;27.77;38.34;98836.66;4876891;29;20466;-92
2023/08/28 07:56:28;;;;;;;5.72;2.35;;;;;;;27.90;37.26;98821.25;4910152;29;20090;-90
2023/08/28 07:58:54;;;;;;;4.28;2.80;;;;;;;28.04;36.23;98817.66;4881331;29;20482;-90
2023/08/28 08:01:26;;;;;;;7.90;3.08;;;;;;;28.24;37.07;98840.13;4878943;29;20035;-91
2023/08/28 08:03:57;;;;;;;9.30;5.97;;;;;;;28.35;35.44;98829.81;4873688;29;20096;-90
2023/08/28 08:06:26;;;;;;;5.88;3.70;;;;;;;28.46;35.72;98832.53;4873186;29;20081;-90
2023/08/28 08:08:52;;;;;;;3.88;2.25;;;;;;;28.59;36.11;98835.66;4877903;29;20028;-89
2023/08/28 08:11:21;;;;;;;6.88;2.95;;;;;;;28.71;35.99;98835.22;4877443;29;20138;-90
2023/08/28 08:13:55;;;;;;;3.47;2.05;;;;;;;28.79;34.22;98833.19;4887583;29;20036;-91
2023/08/28 08:16:41;;;;;;;3.28;1.98;;;;;;;28.89;33.32;98832.34;4891630;29;20031;-90
2023/08/28 08:19:09;;;;;;;5.03;2.40;;;;;;;28.89;32.97;98818.47;4875635;29;20490;-91
2023/08/28 08:21:35;;;;;;;2.83;1.98;;;;;;;28.84;31.37;98804.25;4876606;29;20031;-90
2023/08/28 08:24:34;;;;;;;4.28;1.90;;;;;;;29.05;31.24;98829.06;4880577;29;20080;-91
2023/08/28 08:27:59;;;;;;;6.10;2.30;;;;;;;29.16;29.95;98821.50;4892940;29;20112;-91
2023/08/28 08:31:19;;;;;;;5.38;2.85;;;;;;;29.14;27.99;98796.16;4908827;29;20024;-89
2023/08/28 08:33:48;;;;;;;5.80;2.30;;;;;;;29.23;27.35;98786.59;4887298;29;20450;-91
2023/08/28 08:36:16;;;;;;;3.58;2.47;;;;;;;29.41;26.09;98790.78;4881339;29;20031;-90
2023/08/28 08:38:45;;;;;;;3.92;2.35;;;;;;;29.51;26.19;98785.53;4881236;29;20132;-89
2023/08/28 08:41:10;;;;;;;3.55;2.88;;;;;;;29.73;24.45;98805.56;4894597;29;20031;-90
2023/08/28 08:43:37;;;;;;;3.67;1.77;;;;;;;29.74;24.92;98807.94;4870277;29;20128;-90
2023/08/28 08:46:07;;;;;;;3.42;1.98;;;;;;;29.87;26.10;98805.41;4874021;29;20036;-90
2023/08/28 08:48:36;;;;;;;2.80;1.87;;;;;;;29.83;27.20;98798.34;4870313;29;20028;-90
2023/08/28 08:51:48;;;;;;;4.85;2.20;;;;;;;29.75;26.86;98781.75;4877611;29;20096;-96
2023/08/28 08:55:15;;;;;;;4.30;1.90;;;;;;;29.87;25.08;98772.09;4978447;23;20024;-94
2023/08/28 08:58:03;;;;;;;2.47;1.50;;;;;;;30.05;23.20;98784.97;4864632;29;20061;-96
2023/08/28 09:00:56;;;;;;;2.85;1.75;;;;;;;30.11;23.62;98775.81;4901187;29;20084;-96
2023/08/28 09:20:17;;;;;;;3.88;1.80;;;;;;;30.72;23.01;98755.56;5060187;23;19924;-91
2023/08/28 09:22:53;;;;;;;3.13;2.00;;;;;;;30.83;20.55;98752.59;4858142;29;20820;-90
2023/08/28 09:25:23;;;;;;;3.92;2.22;;;;;;;31.01;21.21;98760.69;4865222;29;20044;-89
2023/08/28 09:27:55;;;;;;;5.25;2.65;;;;;;;31.17;22.23;98768.38;4866452;29;20170;-94
2023/08/28 10:04:13;;;;;;;3.60;2.50;;;;;;;32.00;19.29;98729.53;5497629;23;20064;-88
2023/08/28 10:06:50;;;;;;;2.97;2.10;;;;;;;31.96;19.76;98725.19;4893814;29;20045;-88
2023/08/28 10:09:22;;;;;;;3.03;2.00;;;;;;;32.13;19.45;98734.44;4868026;29;20492;-87
2023/08/28 10:11:48;;;;;;;4.82;2.15;;;;;;;32.23;19.57;98730.63;4857223;29;20024;-89
2023/08/28 10:14:14;;;;;;;2.88;1.90;;;;;;;32.21;19.60;98714.34;4871337;29;20088;-90
2023/08/28 10:16:49;;;;;;;3.25;1.67;;;;;;;32.36;19.39;98723.16;4869308;29;20032;-90
2023/08/28 10:19:34;;;;;;;3.25;1.70;;;;;;;32.40;18.75;98718.28;4871186;29;20096;-91
2023/08/28 10:22:04;;;;;;;7.65;3.75;;;;;;;32.42;20.13;98704.72;4869898;29;20037;-89
2023/08/28 10:24:30;;;;;;;3.47;2.08;;;;;;;32.50;20.53;98710.13;4870112;29;20498;-90
2023/08/28 10:27:08;;;;;;;3.72;2.00;;;;;;;32.60;19.39;98711.91;4872502;29;20111;-90
2023/08/28 10:29:34;;;;;;;3.17;1.65;;;;;;;32.64;19.78;98701.44;4869911;29;20033;-89
2023/08/28 10:32:09;;;;;;;;;;;;;;;;;;;;;
2023/08/28 10:34:50;;;;;;;;;;;;;;;;;;;;;
2023/08/28 10:37:39;;;;;;;3.83;2.50;;;;;;;32.75;20.07;98670.53;4823826;29;20046;-91
2023/08/28 10:40:34;;;;;;;3.50;2.10;;;;;;;32.76;19.73;98677.66;4816676;29;20046;-92
2023/08/28 10:43:02;;;;;;;4.25;2.30;;;;;;;32.87;19.31;98685.75;4828444;29;20037;-89
2023/08/28 10:45:31;;;;;;;3.10;1.90;;;;;;;32.84;19.62;98686.66;4820488;29;20041;-89
2023/08/28 10:47:56;;;;;;;6.72;2.00;;;;;;;32.87;19.40;98694.13;4828369;29;20135;-90
2023/08/28 10:50:22;;;;;;;4.60;2.25;;;;;;;32.86;19.83;98687.00;4858379;29;20110;-90
2023/08/28 10:53:31;;;;;;;;;;;;;;;;;;;;;
2023/08/28 10:56:00;;;;;;;4.25;1.90;;;;;;;32.84;20.40;98669.91;4887260;29;20096;-90
2023/08/28 10:58:32;;;;;;;3.13;1.80;;;;;;;32.92;20.45;98674.09;4860582;29;20047;-94
2023/08/28 11:01:13;;;;;;;4.13;1.95;;;;;;;33.07;21.08;98682.88;4875651;29;20080;-90
2023/08/28 11:04:02;;;;;;;3.15;1.90;;;;;;;33.12;20.09;98683.16;4858492;29;20033;-89
2023/08/28 11:07:27;;;;;;;2.97;1.90;;;;;;;33.18;20.88;98678.63;4888892;29;20445;-91
2023/08/28 11:10:26;;;;;;;9.30;1.88;;;;;;;33.11;20.37;98672.44;4798289;29;20499;-90
2023/08/28 11:13:37;;;;;;;4.75;1.55;;;;;;;33.05;20.36;98663.78;4785429;29;20030;-90
2023/08/28 11:16:02;;;;;;;3.50;2.10;;;;;;;33.10;20.76;98654.13;4813916;29;20066;-90
2023/08/28 11:18:42;;;;;;;;;;;;;;;;;;;;;
2023/08/28 11:21:11;;;;;;;3.65;1.80;;;;;;;33.17;20.50;98640.00;4787346;29;20134;-92
2023/08/28 11:23:43;;;;;;;3.83;1.75;;;;;;;33.24;20.01;98630.63;4805477;29;20030;-91
2023/08/28 11:26:33;;;;;;;3.35;2.17;;;;;;;33.39;20.95;98652.13;4790286;29;20050;-89
2023/08/28 11:29:04;;;;;;;4.13;1.98;;;;;;;33.35;20.82;98633.91;4786757;29;20136;-91
2023/08/28 11:31:33;;;;;;;3.25;1.80;;;;;;;33.36;21.01;98627.13;4792958;29;20045;-95
2023/08/28 11:33:59;;;;;;;2.35;1.85;;;;;;;33.45;20.87;98623.66;4789613;29;20054;-95
2023/08/28 11:36:26;;;;;;;2.55;1.60;;;;;;;33.55;20.68;98636.53;4788097;29;20026;-95
2023/08/28 11:39:02;;;;;;;3.13;1.52;;;;;;;33.44;20.05;98622.91;4795890;30;20035;-94
2023/08/28 11:41:30;;;;;;;2.60;1.70;;;;;;;33.44;20.59;98625.69;4873215;29;20071;-94
2023/08/28 11:44:20;;;;;;;2.70;1.70;;;;;;;33.53;20.34;98636.97;4874508;29;20037;-96
2023/08/28 11:49:26;;;;;;;3.33;1.90;;;;;;;33.44;20.78;98616.53;4979651;23;20092;-90
2023/08/28 11:51:52;;;;;;;2.67;1.52;;;;;;;33.51;20.55;98607.94;4872613;29;20039;-89
2023/08/28 11:54:23;;;;;;;2.90;1.70;;;;;;;33.61;20.39;98604.88;4865864;29;20029;-89
2023/08/28 11:56:49;;;;;;;9.73;3.58;;;;;;;33.67;20.67;98596.72;4880096;29;20059;-91
2023/08/28 12:03:41;;;;;;;3.42;1.77;;;;;;;33.54;20.36;98593.91;4847612;29;20044;-91
2023/08/28 12:10:51;;;;;;;;;;;;;;;;;;;;;
2023/08/28 12:25:11;;;;;;;4.95;2.13;;;;;;;33.81;20.80;98585.13;4634655;30;20179;-88
2023/08/28 12:27:53;;;;;;;3.85;2.13;;;;;;;33.68;19.72;98581.56;4612167;31;20059;-89
2023/08/28 12:44:09;;;;;;;2.85;1.65;;;;;;;33.72;20.30;98545.91;4677313;30;20052;-89
2023/08/28 12:46:52;;;;;;;4.18;1.90;;;;;;;33.78;20.78;98555.28;4671096;30;20083;-90
2023/08/28 12:49:21;;;;;;;3.70;2.20;;;;;;;33.84;20.90;98549.94;4781513;30;20043;-90
2023/08/28 12:52:17;;;;;;;;;;;;;;;;;;;;;
2023/08/28 12:58:27;;;;;;;2.90;1.65;;;;;;;33.96;19.94;98531.63;4880860;29;20130;-89
2023/08/28 13:01:37;;;;;;;2.88;1.80;;;;;;;34.12;19.74;98539.88;4892036;29;20036;-88
2023/08/28 13:05:01;;;;;;;3.25;1.88;;;;;;;34.22;19.40;98526.78;4842798;29;20124;-89
2023/08/28 13:07:41;;;;;;;2.78;1.80;;;;;;;34.23;19.63;98519.97;4832468;29;20529;-91
2023/08/28 13:10:35;;;;;;;2.88;1.73;;;;;;;34.26;19.83;98515.50;4807727;29;20046;-88
2023/08/28 13:13:04;;;;;;;4.03;2.30;;;;;;;34.39;20.42;98535.84;4834066;29;20069;-89
2023/08/28 13:15:32;;;;;;;3.25;1.90;;;;;;;34.38;19.86;98537.81;4835212;29;20034;-87
2023/08/28 13:18:00;;;;;;;2.78;1.60;;;;;;;34.41;20.05;98531.34;4820585;29;20536;-91
2023/08/28 13:20:34;;;;;;;6.82;2.97;;;;;;;34.51;20.05;98528.63;4837501;29;20155;-91
2023/08/28 13:22:59;;;;;;;5.88;2.20;;;;;;;34.59;19.87;98525.13;4837526;29;20093;-90
2023/08/28 13:29:28;;;;;;;6.53;2.40;;;;;;;34.87;20.48;98527.41;4731014;30;20184;-89
2023/08/28 13:31:53;;;;;;;;;;;;;;;35.01;20.05;98530.47;4805635;29;20095;-90
2023/08/28 13:34:39;;;;;;;3.08;2.08;;;;;;;34.98;20.04;98516.59;4863119;29;19919;-91
2023/08/28 13:37:05;;;;;;;3.70;2.22;;;;;;;34.92;20.02;98496.81;4869537;29;20020;-89
2023/08/28 13:39:38;;;;;;;4.22;3.28;;;;;;;35.01;20.44;98507.28;4890260;29;20032;-90
2023/08/28 13:42:07;;;;;;;2.95;1.80;;;;;;;35.00;20.23;98511.34;4873841;29;20096;-90
2023/08/28 13:44:35;;;;;;;3.35;2.00;;;;;;;35.05;19.87;98496.75;4864776;29;20115;-89
2023/08/28 13:50:16;;;;;;;4.45;2.08;;;;;;;35.05;19.53;98476.38;5137229;27;20498;-89